Altair — 9LC2000 — position and weather

sailwx.info

Track history (hours):
 
Tides and Currents Weather Stations Pressure Air Temp Water Temp Dewpoint Dewpoint Depression Visibility Wind Speed Wind Dir Waves Ship Positions

Altair

Last reported at 2016-Sep-16 17:33 UTC. Time now 2016-Sep-27 01:58 UTC.
Position N 45°19' E 036°31'.
Warning: this ship's position is 10 days out of date.

Length 108 m; draft 2.7 m.

Type: Cargo ship. MMSI: 667021000.

Date/timePositionNaut miles runAvg speedWind from/ knotsBaromVisibWave heightAir tempDewpointWater temp
2016-Sep-16 17:33N 45°19' E 036°31'83 5.9
2016-Sep-16 03:30N 44°31' E 034°56'6 6.7
2016-Sep-16 02:33N 44°28' E 034°47'13 6.6
2016-Sep-16 00:33N 44°23' E 034°31'14 6.6
2016-Sep-15 22:24N 44°20' E 034°11'  
2016-Sep-09 20:29N 34°00' E 032°36'18 8.2
2016-Sep-09 18:17N 33°49' E 032°53'6 7.9
2016-Sep-09 17:33N 33°45' E 032°58'8 7.9
2016-Sep-09 16:32N 33°41' E 033°06'10 7.9
2016-Sep-09 15:14N 33°34' E 033°15'5 7.8
2016-Sep-09 14:33N 33°31' E 033°20'11 7.7
2016-Sep-09 13:06N 33°24' E 033°31'75 7.6
2016-Sep-09 03:14N 32°54' E 034°54'5 6.8
2016-Sep-09 02:34N 32°52' E 034°59'4 4.2
2016-Sep-09 01:34N 32°49' E 035°02'0 0.0
2016-Sep-09 00:31N 32°49' E 035°02'0 0.0
2016-Sep-08 23:31N 32°49' E 035°02'0 0.0
2016-Sep-08 22:31N 32°49' E 035°02'0 0.0
2016-Sep-08 21:31N 32°49' E 035°02'0 0.0
2016-Sep-08 20:31N 32°49' E 035°02'0 0.0
2016-Sep-08 19:31N 32°49' E 035°02'0 0.0
2016-Sep-08 18:31N 32°49' E 035°02'0 0.0
2016-Sep-08 17:31N 32°49' E 035°02'0 0.0
2016-Sep-08 16:31N 32°49' E 035°02'0 0.0
2016-Sep-08 15:31N 32°49' E 035°02'0 0.0
2016-Sep-08 14:31N 32°49' E 035°02'0 0.0
2016-Sep-08 13:31N 32°49' E 035°02'0 0.0
2016-Sep-08 12:31N 32°49' E 035°02'0 0.0
2016-Sep-08 11:31N 32°49' E 035°02'0 0.0
2016-Sep-08 10:31N 32°49' E 035°02'0 0.0
2016-Sep-08 09:31N 32°49' E 035°02'0 0.0
2016-Sep-08 08:31N 32°49' E 035°02'0 0.0
2016-Sep-08 07:31N 32°49' E 035°02'0 0.0
2016-Sep-08 06:31N 32°49' E 035°02'0 0.0
2016-Sep-08 05:31N 32°49' E 035°02'0 0.0
2016-Sep-08 04:31N 32°49' E 035°02'0 0.0
2016-Sep-08 03:31N 32°49' E 035°02'0 0.0
2016-Sep-08 02:31N 32°49' E 035°02'0 0.0
2016-Sep-08 01:31N 32°49' E 035°02'0 0.0
2016-Sep-08 00:31N 32°49' E 035°02'0 0.0
2016-Sep-07 23:31N 32°49' E 035°02'0 0.0
2016-Sep-07 22:31N 32°49' E 035°02'0 0.0
2016-Sep-07 21:31N 32°49' E 035°02'0 0.0
2016-Sep-07 20:31N 32°49' E 035°02'0 0.0
2016-Sep-07 19:31N 32°49' E 035°02'0 0.0
2016-Sep-07 16:31N 32°49' E 035°02'0 0.0
2016-Sep-07 15:31N 32°49' E 035°02'0 0.0
2016-Sep-07 14:31N 32°49' E 035°02'0 0.0
2016-Sep-07 13:31N 32°49' E 035°02'0 0.0
2016-Sep-07 12:31N 32°49' E 035°02'0 0.0
2016-Sep-07 11:31N 32°49' E 035°02'0 0.0
2016-Sep-07 10:31N 32°49' E 035°02'0 0.0
2016-Sep-07 09:31N 32°49' E 035°02'0 0.0
2016-Sep-07 08:31N 32°49' E 035°02'0 0.0
2016-Sep-07 07:31N 32°49' E 035°02'0 0.0
2016-Sep-07 06:31N 32°49' E 035°02'0 0.0
2016-Sep-07 04:34N 32°49' E 035°02'4 3.5
2016-Sep-07 03:34N 32°52' E 035°00'0 0.1
2016-Sep-07 02:32N 32°52' E 035°01'0 0.0
2016-Sep-07 01:32N 32°52' E 035°01'0 0.0
2016-Sep-07 00:32N 32°52' E 035°01'0 0.0
2016-Sep-06 23:32N 32°52' E 035°01'0 0.0
2016-Sep-06 22:29N 32°52' E 035°01'0 0.0
2016-Sep-06 21:32N 32°52' E 035°01'0 0.0
2016-Sep-06 20:32N 32°52' E 035°01'0 0.0
2016-Sep-06 19:32N 32°52' E 035°01'0 0.0
2016-Sep-06 18:32N 32°52' E 035°01'  
Track history (hours):
 
Tides and Currents Weather Stations Pressure Air Temp Water Temp Dewpoint Dewpoint Depression Visibility Wind Speed Wind Dir Waves Ship Positions

Altair

Last reported at 2016-Sep-16 17:33 UTC. Time now 2016-Sep-27 01:58 UTC.
Position N 45°19' E 036°31'.
Warning: this ship's position is 10 days out of date.

Length 108 m; draft 2.7 m.

Type: Cargo ship. MMSI: 667021000.

Date/timePositionNaut miles runAvg speedWind from/ knotsBaromVisibWave heightAir tempDewpointWater temp
2016-Sep-16 17:33N 45°19' E 036°31'83 5.9
2016-Sep-16 03:30N 44°31' E 034°56'6 6.7
2016-Sep-16 02:33N 44°28' E 034°47'13 6.6
2016-Sep-16 00:33N 44°23' E 034°31'14 6.6
2016-Sep-15 22:24N 44°20' E 034°11'  
2016-Sep-09 20:29N 34°00' E 032°36'18 8.2
2016-Sep-09 18:17N 33°49' E 032°53'6 7.9
2016-Sep-09 17:33N 33°45' E 032°58'8 7.9
2016-Sep-09 16:32N 33°41' E 033°06'10 7.9
2016-Sep-09 15:14N 33°34' E 033°15'5 7.8
2016-Sep-09 14:33N 33°31' E 033°20'11 7.7
2016-Sep-09 13:06N 33°24' E 033°31'75 7.6
2016-Sep-09 03:14N 32°54' E 034°54'5 6.8
2016-Sep-09 02:34N 32°52' E 034°59'4 4.2
2016-Sep-09 01:34N 32°49' E 035°02'0 0.0
2016-Sep-09 00:31N 32°49' E 035°02'0 0.0
2016-Sep-08 23:31N 32°49' E 035°02'0 0.0
2016-Sep-08 22:31N 32°49' E 035°02'0 0.0
2016-Sep-08 21:31N 32°49' E 035°02'0 0.0
2016-Sep-08 20:31N 32°49' E 035°02'0 0.0
2016-Sep-08 19:31N 32°49' E 035°02'0 0.0
2016-Sep-08 18:31N 32°49' E 035°02'0 0.0
2016-Sep-08 17:31N 32°49' E 035°02'0 0.0
2016-Sep-08 16:31N 32°49' E 035°02'0 0.0
2016-Sep-08 15:31N 32°49' E 035°02'0 0.0
2016-Sep-08 14:31N 32°49' E 035°02'0 0.0
2016-Sep-08 13:31N 32°49' E 035°02'0 0.0
2016-Sep-08 12:31N 32°49' E 035°02'0 0.0
2016-Sep-08 11:31N 32°49' E 035°02'0 0.0
2016-Sep-08 10:31N 32°49' E 035°02'0 0.0
2016-Sep-08 09:31N 32°49' E 035°02'0 0.0
2016-Sep-08 08:31N 32°49' E 035°02'0 0.0
2016-Sep-08 07:31N 32°49' E 035°02'0 0.0
2016-Sep-08 06:31N 32°49' E 035°02'0 0.0
2016-Sep-08 05:31N 32°49' E 035°02'0 0.0
2016-Sep-08 04:31N 32°49' E 035°02'0 0.0
2016-Sep-08 03:31N 32°49' E 035°02'0 0.0
2016-Sep-08 02:31N 32°49' E 035°02'0 0.0
2016-Sep-08 01:31N 32°49' E 035°02'0 0.0
2016-Sep-08 00:31N 32°49' E 035°02'0 0.0
2016-Sep-07 23:31N 32°49' E 035°02'0 0.0
2016-Sep-07 22:31N 32°49' E 035°02'0 0.0
2016-Sep-07 21:31N 32°49' E 035°02'0 0.0
2016-Sep-07 20:31N 32°49' E 035°02'0 0.0
2016-Sep-07 19:31N 32°49' E 035°02'0 0.0
2016-Sep-07 16:31N 32°49' E 035°02'0 0.0
2016-Sep-07 15:31N 32°49' E 035°02'0 0.0
2016-Sep-07 14:31N 32°49' E 035°02'0 0.0
2016-Sep-07 13:31N 32°49' E 035°02'0 0.0
2016-Sep-07 12:31N 32°49' E 035°02'0 0.0
2016-Sep-07 11:31N 32°49' E 035°02'0 0.0
2016-Sep-07 10:31N 32°49' E 035°02'0 0.0
2016-Sep-07 09:31N 32°49' E 035°02'0 0.0
2016-Sep-07 08:31N 32°49' E 035°02'0 0.0
2016-Sep-07 07:31N 32°49' E 035°02'0 0.0
2016-Sep-07 06:31N 32°49' E 035°02'0 0.0
2016-Sep-07 04:34N 32°49' E 035°02'4 3.5
2016-Sep-07 03:34N 32°52' E 035°00'0 0.1
2016-Sep-07 02:32N 32°52' E 035°01'0 0.0
2016-Sep-07 01:32N 32°52' E 035°01'0 0.0
2016-Sep-07 00:32N 32°52' E 035°01'0 0.0
2016-Sep-06 23:32N 32°52' E 035°01'0 0.0
2016-Sep-06 22:29N 32°52' E 035°01'0 0.0
2016-Sep-06 21:32N 32°52' E 035°01'0 0.0
2016-Sep-06 20:32N 32°52' E 035°01'0 0.0
2016-Sep-06 19:32N 32°52' E 035°01'0 0.0
2016-Sep-06 18:32N 32°52' E 035°01'  

Dump ship's entire track history